Time;durP1;ratioP1;P1;durP2;ratioP2;P2;SDS_P1;SDS_P2;PMS_P1;PMS_P2;Temp;Humidity;BMP_temperature;BMP_pressure;BME280_temperature;BME280_humidity;BME280_pressure;Samples;Min_cycle;Max_cycle;Signal;HPM_P1;HPM_P2
2022/04/30 00:01:14;;;;;;;8.70;7.90;;;14.90;99.90;;;;;;5073286;28;20173;-72
2022/04/30 00:03:39;;;;;;;8.30;7.60;;;15.00;99.90;;;;;;5057510;28;20192;-72
2022/04/30 00:06:05;;;;;;;8.80;6.87;;;15.00;99.90;;;;;;5076740;28;20892;-72
2022/04/30 00:08:32;;;;;;;7.73;7.20;;;15.00;99.90;;;;;;5076388;28;20204;-72
2022/04/30 00:10:57;;;;;;;8.63;7.93;;;15.00;99.90;;;;;;5069317;28;20818;-71
2022/04/30 00:13:23;;;;;;;7.57;6.97;;;15.00;99.90;;;;;;5076289;28;20973;-71
2022/04/30 00:15:48;;;;;;;7.07;6.47;;;15.00;99.90;;;;;;5076915;28;20175;-72
2022/04/30 00:18:14;;;;;;;8.17;7.43;;;15.00;99.90;;;;;;5075907;28;20191;-72
2022/04/30 00:20:45;;;;;;;7.00;6.50;;;15.00;99.90;;;;;;5076615;28;20178;-71
2022/04/30 00:23:19;;;;;;;8.13;7.40;;;15.00;99.90;;;;;;5076718;28;20487;-71
2022/04/30 00:25:46;;;;;;;6.70;6.20;;;15.00;99.90;;;;;;5076451;28;20441;-71
2022/04/30 00:28:12;;;;;;;8.40;7.70;;;15.00;99.90;;;;;;5075753;28;20498;-71
2022/04/30 00:30:38;;;;;;;7.00;6.40;;;15.00;99.90;;;;;;5076028;28;20406;-71
2022/04/30 00:33:09;;;;;;;8.33;7.63;;;15.00;99.90;;;;;;5076046;28;20169;-71
2022/04/30 00:35:35;;;;;;;7.80;7.10;;;15.00;99.90;;;;;;5076386;28;20153;-71
2022/04/30 00:38:00;;;;;;;7.27;6.77;;;15.00;99.90;;;;;;5075759;28;20470;-70
2022/04/30 00:40:26;;;;;;;7.30;6.70;;;14.80;99.90;;;;;;5076117;28;20964;-71
2022/04/30 00:42:51;;;;;;;8.07;7.37;;;14.80;99.90;;;;;;5075536;28;20188;-71
2022/04/30 00:45:17;;;;;;;8.47;7.67;;;14.80;99.90;;;;;;5075558;28;20181;-71
2022/04/30 00:47:43;;;;;;;8.57;7.77;;;14.70;99.90;;;;;;5075549;28;20208;-71
2022/04/30 00:50:14;;;;;;;9.33;8.53;;;14.60;99.90;;;;;;5075906;28;20165;-71
2022/04/30 00:52:42;;;;;;;10.17;9.27;;;14.50;99.90;;;;;;5075701;28;20476;-71
2022/04/30 00:55:08;;;;;;;9.23;8.53;;;14.40;99.90;;;;;;5075812;28;20411;-71
2022/04/30 00:57:36;;;;;;;12.13;10.20;;;14.60;99.90;;;;;;5076524;28;20470;-69
2022/04/30 01:00:04;;;;;;;11.03;10.13;;;14.40;99.90;;;;;;5075386;28;20410;-69
2022/04/30 01:02:32;;;;;;;11.30;10.20;;;14.20;99.90;;;;;;5075656;28;20903;-69
2022/04/30 01:04:59;;;;;;;10.67;9.80;;;14.40;99.90;;;;;;5075419;28;20411;-69
2022/04/30 01:07:26;;;;;;;11.07;10.10;;;14.50;99.90;;;;;;5075263;28;20851;-70
2022/04/30 01:09:53;;;;;;;10.50;9.53;;;14.60;99.90;;;;;;5057228;28;20422;-69
2022/04/30 01:12:20;;;;;;;10.50;9.60;;;14.70;99.90;;;;;;5075206;28;20423;-69
2022/04/30 01:14:47;;;;;;;12.43;11.13;;;14.80;99.90;;;;;;5056680;28;20422;-69
2022/04/30 01:17:13;;;;;;;12.50;11.30;;;14.70;99.90;;;;;;5057142;28;20445;-69
2022/04/30 01:19:43;;;;;;;14.83;13.20;;;14.70;99.90;;;;;;5075182;28;20452;-69
2022/04/30 01:22:28;;;;;;;14.07;12.80;;;14.50;99.90;;;;;;5064381;28;20422;-69
2022/04/30 01:24:58;;;;;;;14.60;13.10;;;14.40;99.90;;;;;;5048338;28;20418;-70
2022/04/30 01:27:26;;;;;;;15.83;14.37;;;14.50;99.90;;;;;;5054745;28;21036;-69
2022/04/30 01:29:53;;;;;;;21.40;16.40;;;14.40;99.90;;;;;;5055196;28;20912;-69
2022/04/30 01:38:00;;;;;;;20.10;18.00;;;14.20;99.90;;;;;;5055816;28;20476;-68
2022/04/30 01:40:26;;;;;;;19.87;17.87;;;14.10;99.90;;;;;;5063222;28;20413;-69
2022/04/30 01:42:52;;;;;;;21.40;18.00;;;14.20;99.90;;;;;;5074608;28;20194;-69
2022/04/30 01:45:18;;;;;;;19.73;17.60;;;14.10;99.90;;;;;;5074998;28;20406;-69
2022/04/30 01:47:45;;;;;;;22.50;19.90;;;14.10;99.90;;;;;;5074362;28;20498;-69
2022/04/30 01:50:12;;;;;;;21.23;17.70;;;14.10;99.90;;;;;;5074211;28;20418;-70
2022/04/30 01:52:39;;;;;;;23.47;19.60;;;14.20;99.90;;;;;;5056581;28;20422;-69
2022/04/30 01:55:05;;;;;;;22.87;20.47;;;14.20;99.90;;;;;;5074928;28;20817;-69
2022/04/30 01:57:30;;;;;;;20.37;18.07;;;14.30;99.90;;;;;;5074041;28;20456;-69
2022/04/30 01:59:58;;;;;;;23.03;18.40;;;14.40;99.90;;;;;;5074219;28;20518;-69
2022/04/30 02:02:27;;;;;;;20.27;17.70;;;14.40;99.90;;;;;;5074340;28;20187;-69
2022/04/30 02:04:56;;;;;;;21.60;18.07;;;14.40;99.90;;;;;;5040193;28;20418;-69
2022/04/30 02:07:23;;;;;;;24.20;20.27;;;14.40;99.90;;;;;;5054262;28;20464;-70
2022/04/30 02:09:53;;;;;;;23.43;20.93;;;14.30;99.90;;;;;;5054316;28;20410;-70
2022/04/30 02:12:19;;;;;;;22.00;19.67;;;14.30;99.90;;;;;;5055089;28;20427;-69
2022/04/30 02:14:51;;;;;;;26.10;19.97;;;14.00;99.90;;;;;;5056863;28;20438;-70
2022/04/30 02:17:19;;;;;;;24.00;19.70;;;14.10;99.90;;;;;;5056270;28;20514;-70
2022/04/30 02:22:30;;;;;;;21.00;18.47;;;14.10;99.90;;;;;;5074991;28;20434;-70
2022/04/30 02:24:59;;;;;;;24.60;19.33;;;14.10;99.90;;;;;;5074525;28;20412;-69
2022/04/30 02:27:26;;;;;;;23.80;19.27;;;14.10;99.90;;;;;;5056504;28;20828;-69
2022/04/30 02:29:52;;;;;;;24.60;20.03;;;13.90;99.90;;;;;;5056718;28;20784;-69
2022/04/30 02:32:17;;;;;;;25.80;20.33;;;13.90;99.90;;;;;;5074154;28;20403;-69
2022/04/30 02:34:43;;;;;;;23.70;18.47;;;13.80;99.90;;;;;;5055884;28;20655;-69
2022/04/30 02:37:13;;;;;;;22.90;19.03;;;13.80;99.90;;;;;;5055506;28;20231;-69
2022/04/30 02:39:39;;;;;;;22.60;19.30;;;14.00;99.90;;;;;;5055698;28;20181;-69
2022/04/30 02:42:05;;;;;;;21.70;19.10;;;13.90;99.90;;;;;;5073528;28;20460;-69
2022/04/30 02:44:31;;;;;;;20.57;17.27;;;13.80;99.90;;;;;;5073328;28;20557;-70
2022/04/30 02:46:56;;;;;;;21.27;18.87;;;13.70;99.90;;;;;;5073290;28;20189;-69
2022/04/30 02:49:22;;;;;;;24.07;17.03;;;13.90;99.90;;;;;;5073380;28;20406;-69
2022/04/30 02:51:49;;;;;;;22.57;20.13;;;14.00;99.90;;;;;;5072378;28;20225;-69
2022/04/30 02:54:15;;;;;;;21.17;18.93;;;13.90;99.90;;;;;;5073357;28;20638;-69
2022/04/30 02:56:42;;;;;;;18.53;16.73;;;13.90;99.90;;;;;;5073106;28;20468;-69
2022/04/30 03:01:52;;;;;;;22.43;18.37;;;13.70;99.90;;;;;;5073704;28;20387;-70
2022/04/30 03:04:17;;;;;;;20.47;18.33;;;13.80;99.90;;;;;;5073860;28;20492;-70
2022/04/30 03:06:46;;;;;;;20.40;17.80;;;13.70;99.90;;;;;;5073143;28;20661;-69
2022/04/30 03:09:12;;;;;;;23.10;19.33;;;13.50;99.90;;;;;;5073251;28;20570;-69
2022/04/30 03:11:38;;;;;;;21.60;19.30;;;13.40;99.90;;;;;;5073225;28;20406;-69
2022/04/30 03:14:03;;;;;;;21.90;19.30;;;13.40;99.90;;;;;;5073042;28;20171;-69
2022/04/30 03:21:58;;;;;;;23.07;20.00;;;13.30;99.90;;;;;;5073406;28;20421;-69
2022/04/30 03:24:27;;;;;;;30.40;22.47;;;13.20;99.90;;;;;;5073902;28;20420;-69
2022/04/30 03:26:52;;;;;;;22.87;20.47;;;13.30;99.90;;;;;;5073093;28;20626;-69
2022/04/30 03:29:19;;;;;;;25.10;21.80;;;13.30;99.90;;;;;;5072785;28;20497;-69
2022/04/30 03:31:45;;;;;;;22.80;20.03;;;13.30;99.90;;;;;;5073120;28;20542;-69
2022/04/30 03:34:13;;;;;;;24.40;21.07;;;13.30;99.90;;;;;;5073703;28;20425;-69
2022/04/30 03:36:40;;;;;;;24.57;21.03;;;13.30;99.90;;;;;;5074216;28;20425;-70
2022/04/30 03:39:06;;;;;;;25.50;22.70;;;13.30;99.90;;;;;;5077084;28;20401;-69
2022/04/30 03:41:32;;;;;;;28.50;22.60;;;13.30;99.90;;;;;;5076983;28;20401;-69
2022/04/30 03:43:58;;;;;;;30.03;22.93;;;13.20;99.90;;;;;;5076723;28;20418;-69
2022/04/30 03:46:23;;;;;;;26.43;23.47;;;13.10;99.90;;;;;;5076752;28;20659;-69
2022/04/30 03:48:53;;;;;;;26.07;23.33;;;13.10;99.90;;;;;;5076832;28;20202;-69
2022/04/30 03:51:21;;;;;;;27.70;23.53;;;13.00;99.90;;;;;;5076942;28;20220;-70
2022/04/30 03:53:46;;;;;;;31.40;25.83;;;13.00;99.90;;;;;;5076792;28;20412;-69
2022/04/30 03:56:12;;;;;;;29.20;25.80;;;12.90;99.90;;;;;;5076592;28;20453;-69
2022/04/30 03:58:38;;;;;;;32.67;26.93;;;13.00;99.90;;;;;;5076558;28;20406;-69
2022/04/30 04:01:03;;;;;;;33.07;27.30;;;12.90;99.90;;;;;;5075341;28;20170;-70
2022/04/30 04:03:29;;;;;;;31.57;26.70;;;12.90;99.90;;;;;;5056500;28;20631;-70
2022/04/30 04:05:55;;;;;;;32.43;25.70;;;12.90;99.90;;;;;;5056463;28;20175;-69
2022/04/30 04:08:21;;;;;;;32.00;27.03;;;12.80;99.90;;;;;;5056522;28;20198;-70
2022/04/30 04:10:47;;;;;;;38.27;29.87;;;12.60;99.90;;;;;;5056339;28;20174;-69
2022/04/30 04:18:41;;;;;;;34.13;28.93;;;12.70;99.90;;;;;;5036607;28;20382;-70
2022/04/30 04:21:08;;;;;;;35.70;27.27;;;12.60;99.90;;;;;;5049228;28;20404;-70
2022/04/30 04:25:59;;;;;;;34.70;28.00;;;12.70;99.90;;;;;;5076122;28;20807;-69
2022/04/30 04:26:20;;;;;;;32.83;26.63;;;12.70;99.90;;;;;;5075669;28;20439;-70
2022/04/30 04:28:46;;;;;;;36.63;27.87;;;12.60;99.90;;;;;;5057839;28;20812;-70
2022/04/30 04:31:12;;;;;;;30.10;26.80;;;12.60;99.90;;;;;;5076003;28;20238;-69
2022/04/30 04:33:37;;;;;;;33.00;27.97;;;12.70;99.90;;;;;;5076120;28;20401;-69
2022/04/30 04:36:03;;;;;;;32.67;27.17;;;12.70;99.90;;;;;;5057942;28;20212;-70
2022/04/30 04:38:30;;;;;;;33.47;28.23;;;12.80;99.90;;;;;;5075862;28;20219;-70
2022/04/30 04:40:56;;;;;;;29.47;26.23;;;12.80;99.90;;;;;;5076357;28;20890;-68
2022/04/30 04:43:21;;;;;;;36.27;27.53;;;12.70;99.90;;;;;;5075737;28;20432;-70
2022/04/30 04:45:47;;;;;;;32.47;28.33;;;12.90;99.90;;;;;;5057589;28;20264;-70
2022/04/30 04:48:14;;;;;;;38.13;29.43;;;12.90;99.90;;;;;;5074603;28;20201;-70
2022/04/30 04:50:40;;;;;;;28.43;25.23;;;12.90;99.90;;;;;;5076102;28;20676;-70
2022/04/30 04:53:06;;;;;;;33.90;29.80;;;12.90;99.90;;;;;;5075498;28;20430;-69
2022/04/30 04:55:31;;;;;;;32.97;26.70;;;12.70;99.90;;;;;;5057760;28;20411;-70
2022/04/30 04:57:57;;;;;;;30.60;27.03;;;12.60;99.90;;;;;;5075185;28;20331;-70
2022/04/30 05:00:22;;;;;;;31.17;27.87;;;12.70;99.90;;;;;;5075695;28;20189;-70
2022/04/30 05:02:48;;;;;;;30.40;25.33;;;12.60;99.90;;;;;;5075633;28;20636;-70
2022/04/30 05:05:14;;;;;;;32.90;27.27;;;12.70;99.90;;;;;;5075843;28;20166;-69
2022/04/30 05:07:39;;;;;;;29.70;26.50;;;12.70;99.90;;;;;;5075124;28;20203;-70
2022/04/30 05:10:05;;;;;;;31.77;26.97;;;12.80;99.90;;;;;;5075436;28;20179;-70
2022/04/30 05:12:31;;;;;;;26.70;23.80;;;12.80;99.90;;;;;;5075500;28;20631;-70
2022/04/30 05:14:56;;;;;;;35.80;25.90;;;13.00;99.90;;;;;;5074759;28;20494;-70
2022/04/30 05:17:22;;;;;;;29.73;26.60;;;13.10;99.90;;;;;;5075510;28;20626;-70
2022/04/30 05:19:48;;;;;;;29.63;26.20;;;13.20;99.90;;;;;;5075163;28;20178;-70
2022/04/30 05:22:14;;;;;;;29.87;25.40;;;13.00;99.90;;;;;;5057296;28;20707;-70
2022/04/30 05:24:39;;;;;;;31.20;26.03;;;13.10;99.90;;;;;;5075228;28;20167;-69
2022/04/30 05:27:08;;;;;;;35.70;28.23;;;13.20;99.90;;;;;;5074971;28;20796;-69
2022/04/30 05:29:34;;;;;;;36.30;28.50;;;13.10;99.90;;;;;;5074905;28;20528;-70
2022/04/30 05:31:59;;;;;;;31.07;27.30;;;13.00;99.90;;;;;;5074804;28;20417;-69
2022/04/30 05:34:25;;;;;;;33.37;28.37;;;13.10;99.90;;;;;;5075505;28;20415;-69
2022/04/30 05:36:51;;;;;;;32.97;29.33;;;13.10;99.90;;;;;;5074783;28;20269;-69
2022/04/30 05:39:16;;;;;;;30.17;27.07;;;13.20;99.90;;;;;;5075304;28;20209;-69
2022/04/30 05:41:42;;;;;;;31.00;27.80;;;13.00;99.90;;;;;;5077188;28;20212;-70
2022/04/30 05:44:07;;;;;;;31.53;26.33;;;13.00;99.90;;;;;;5078731;28;20654;-69
2022/04/30 05:46:33;;;;;;;31.37;27.83;;;13.10;99.90;;;;;;5082563;28;20192;-68
2022/04/30 05:48:58;;;;;;;35.00;28.40;;;13.10;99.90;;;;;;5083713;28;20268;-69
2022/04/30 05:51:24;;;;;;;27.93;24.43;;;13.00;99.90;;;;;;5086959;28;20200;-68
2022/04/30 05:53:50;;;;;;;29.50;26.20;;;13.00;99.90;;;;;;5088108;28;20165;-69
2022/04/30 05:56:15;;;;;;;33.73;27.63;;;13.00;99.90;;;;;;5069132;28;20202;-68
2022/04/30 05:58:41;;;;;;;34.10;28.00;;;13.00;99.90;;;;;;5059668;28;20611;-69
2022/04/30 06:01:07;;;;;;;29.60;26.53;;;13.10;99.90;;;;;;5057099;28;20216;-68
2022/04/30 06:03:33;;;;;;;38.50;25.83;;;13.30;99.90;;;;;;5055049;28;20169;-69
2022/04/30 06:05:59;;;;;;;27.87;24.83;;;13.30;99.90;;;;;;5053768;28;20168;-68
2022/04/30 06:08:24;;;;;;;29.83;25.10;;;13.00;99.90;;;;;;5054090;28;20539;-68
2022/04/30 06:10:50;;;;;;;25.43;22.83;;;12.90;99.90;;;;;;5054551;28;21007;-68
2022/04/30 06:13:16;;;;;;;32.93;29.33;;;12.60;99.90;;;;;;5053989;28;20169;-68
2022/04/30 06:15:41;;;;;;;28.63;23.37;;;12.80;99.90;;;;;;5054458;28;20172;-68
2022/04/30 06:18:08;;;;;;;29.63;25.60;;;12.90;99.90;;;;;;5054092;28;20188;-68
2022/04/30 06:20:34;;;;;;;25.37;22.50;;;13.20;99.90;;;;;;5056261;28;20258;-69
2022/04/30 06:23:00;;;;;;;30.20;25.13;;;13.00;99.90;;;;;;5074576;28;20424;-68
2022/04/30 06:25:26;;;;;;;29.07;25.93;;;13.00;99.90;;;;;;5074391;28;20405;-68
2022/04/30 06:27:52;;;;;;;26.67;23.77;;;13.10;99.90;;;;;;5073826;28;20475;-68
2022/04/30 06:30:17;;;;;;;29.53;25.20;;;13.20;99.90;;;;;;5073716;28;20494;-69
2022/04/30 06:32:43;;;;;;;25.30;22.47;;;13.20;99.90;;;;;;5073984;28;20238;-69
2022/04/30 06:35:09;;;;;;;29.40;25.97;;;13.10;99.90;;;;;;5073855;28;20672;-68
2022/04/30 06:37:35;;;;;;;29.77;25.90;;;13.20;99.90;;;;;;5073866;28;20189;-68
2022/04/30 06:40:00;;;;;;;27.33;23.17;;;13.40;99.90;;;;;;5073569;28;20251;-68
2022/04/30 06:42:26;;;;;;;26.17;22.00;;;13.70;99.90;;;;;;5073873;28;20180;-68
2022/04/30 06:44:52;;;;;;;29.90;26.27;;;13.80;99.90;;;;;;5073539;28;20170;-68
2022/04/30 06:47:21;;;;;;;28.33;25.30;;;13.80;99.90;;;;;;5055388;28;20469;-68
2022/04/30 06:49:46;;;;;;;31.20;25.57;;;13.60;99.90;;;;;;5073647;28;20249;-68
2022/04/30 06:52:12;;;;;;;24.70;22.07;;;13.80;99.90;;;;;;5073605;28;20491;-69
2022/04/30 06:59:56;;;;;;;24.80;22.27;;;13.70;99.90;;;;;;5084327;22;20491;-76
2022/04/30 07:02:22;;;;;;;26.23;23.47;;;13.70;99.90;;;;;;5072591;28;20428;-76
2022/04/30 07:04:52;;;;;;;25.87;23.00;;;13.70;99.90;;;;;;5072524;28;20420;-76
2022/04/30 07:07:18;;;;;;;24.07;21.53;;;13.50;99.90;;;;;;5050133;28;20983;-75
2022/04/30 07:09:44;;;;;;;25.60;22.87;;;13.30;99.90;;;;;;5048386;28;20474;-75
2022/04/30 07:12:12;;;;;;;24.97;22.23;;;13.30;99.90;;;;;;5072002;28;20414;-75
2022/04/30 07:14:40;;;;;;;28.73;25.70;;;13.40;99.90;;;;;;5039772;28;20919;-75
2022/04/30 07:17:10;;;;;;;24.87;22.10;;;13.50;99.90;;;;;;5052726;28;20450;-76
2022/04/30 07:19:36;;;;;;;26.23;23.20;;;13.60;99.90;;;;;;5052648;28;20431;-75
2022/04/30 07:22:03;;;;;;;24.53;22.03;;;13.50;99.90;;;;;;5051083;28;20495;-76
2022/04/30 07:24:30;;;;;;;24.27;21.77;;;13.50;99.90;;;;;;5052439;28;20718;-76
2022/04/30 07:26:56;;;;;;;25.33;22.83;;;13.60;99.90;;;;;;5039882;28;20411;-76
2022/04/30 07:29:22;;;;;;;25.60;22.80;;;13.50;99.90;;;;;;5039502;28;20532;-76
2022/04/30 07:31:47;;;;;;;29.80;25.10;;;13.40;99.90;;;;;;5047930;28;20181;-76
2022/04/30 07:34:16;;;;;;;25.70;22.47;;;13.20;99.90;;;;;;5051495;28;20585;-76
2022/04/30 07:36:41;;;;;;;26.10;23.30;;;13.20;99.90;;;;;;5052557;28;20602;-76
2022/04/30 07:39:07;;;;;;;26.13;21.93;;;13.40;99.90;;;;;;5052499;28;20460;-75
2022/04/30 07:41:33;;;;;;;23.40;20.97;;;13.60;99.90;;;;;;5052136;28;20239;-76
2022/04/30 07:43:59;;;;;;;24.80;21.83;;;13.30;99.90;;;;;;5052057;28;20176;-76
2022/04/30 07:46:25;;;;;;;29.10;23.30;;;13.00;99.90;;;;;;5052138;28;20545;-76
2022/04/30 07:48:51;;;;;;;29.53;25.20;;;13.00;99.90;;;;;;5052206;28;20508;-76
2022/04/30 07:51:23;;;;;;;24.27;21.97;;;13.10;99.90;;;;;;5051633;28;20417;-75
2022/04/30 07:53:49;;;;;;;23.43;20.90;;;13.10;99.90;;;;;;5051928;28;20167;-75
2022/04/30 07:56:16;;;;;;;24.80;22.33;;;13.20;99.90;;;;;;5052017;28;20419;-76
2022/04/30 07:58:42;;;;;;;25.27;22.57;;;13.40;99.90;;;;;;5049712;28;20220;-75
2022/04/30 08:01:08;;;;;;;23.60;21.10;;;13.40;99.90;;;;;;5041127;28;20407;-76
2022/04/30 08:03:34;;;;;;;26.77;23.57;;;13.50;99.90;;;;;;5041544;28;20241;-76
2022/04/30 08:06:00;;;;;;;21.97;19.50;;;13.60;99.90;;;;;;5051948;28;20421;-75
2022/04/30 08:08:26;;;;;;;21.57;19.37;;;13.60;99.90;;;;;;5052111;28;20456;-77
2022/04/30 08:10:52;;;;;;;21.23;19.10;;;13.60;99.90;;;;;;5051746;28;20413;-76
2022/04/30 08:13:17;;;;;;;23.20;20.80;;;13.60;99.90;;;;;;5051358;28;20253;-76
2022/04/30 08:15:43;;;;;;;22.57;20.27;;;13.50;99.90;;;;;;5051830;28;20529;-77
2022/04/30 08:18:10;;;;;;;24.53;22.10;;;13.70;99.90;;;;;;5051954;28;20201;-76
2022/04/30 08:20:37;;;;;;;22.67;20.47;;;13.80;99.90;;;;;;5050633;28;20180;-76
2022/04/30 08:23:04;;;;;;;21.77;19.67;;;13.90;99.90;;;;;;5052655;28;20427;-76
2022/04/30 08:25:29;;;;;;;22.07;20.00;;;13.80;99.90;;;;;;5055492;28;20487;-75
2022/04/30 08:27:55;;;;;;;20.63;18.23;;;13.60;99.90;;;;;;5054968;28;20468;-75
2022/04/30 08:30:20;;;;;;;22.03;19.63;;;13.40;99.90;;;;;;5055608;28;20173;-76
2022/04/30 08:32:48;;;;;;;21.13;18.70;;;13.30;99.90;;;;;;5055165;28;20172;-75
2022/04/30 08:35:13;;;;;;;20.80;18.60;;;13.40;99.90;;;;;;5055296;28;20177;-75
2022/04/30 08:37:39;;;;;;;22.53;20.23;;;13.30;99.90;;;;;;5054881;28;20462;-75
2022/04/30 08:40:06;;;;;;;23.33;20.93;;;13.40;99.90;;;;;;5058831;28;20187;-76
2022/04/30 08:42:32;;;;;;;21.57;19.50;;;13.60;99.90;;;;;;5075063;28;20207;-76
2022/04/30 08:45:00;;;;;;;22.27;20.13;;;13.70;99.90;;;;;;5074867;28;20904;-76
2022/04/30 08:47:28;;;;;;;19.63;17.80;;;13.80;99.90;;;;;;5074775;28;20242;-75
2022/04/30 08:49:55;;;;;;;19.30;17.40;;;13.60;99.90;;;;;;5074744;28;20799;-75
2022/04/30 08:52:21;;;;;;;20.87;17.97;;;13.60;99.90;;;;;;5074938;28;20769;-76
2022/04/30 08:54:47;;;;;;;20.50;18.40;;;13.50;99.90;;;;;;5074687;28;20491;-76
2022/04/30 08:57:14;;;;;;;20.30;18.20;;;13.40;99.90;;;;;;5074807;28;20764;-76
2022/04/30 08:59:40;;;;;;;18.60;16.70;;;13.30;99.90;;;;;;5074091;28;20203;-76
2022/04/30 09:02:10;;;;;;;19.37;17.37;;;13.30;99.90;;;;;;5056138;28;20510;-76
2022/04/30 09:04:47;;;;;;;18.53;16.83;;;13.40;99.90;;;;;;5074496;28;20154;-76
2022/04/30 09:07:18;;;;;;;19.37;17.40;;;13.40;99.90;;;;;;5074487;28;20406;-76
2022/04/30 09:09:44;;;;;;;20.50;18.57;;;13.30;99.90;;;;;;5074221;28;20432;-76
2022/04/30 09:12:13;;;;;;;20.20;17.70;;;13.30;99.90;;;;;;5056151;28;20988;-76
2022/04/30 09:14:41;;;;;;;19.57;17.53;;;13.20;99.90;;;;;;5073916;28;20411;-76
2022/04/30 09:17:09;;;;;;;18.50;16.67;;;13.30;99.90;;;;;;5074201;28;20426;-76
2022/04/30 09:19:52;;;;;;;20.27;17.40;;;13.20;99.90;;;;;;5074270;28;20422;-76
2022/04/30 09:22:35;;;;;;;21.47;19.43;;;13.40;99.90;;;;;;5074148;28;20783;-76
2022/04/30 09:25:07;;;;;;;17.87;15.97;;;13.40;99.90;;;;;;5074260;28;20400;-76
2022/04/30 09:27:33;;;;;;;16.60;14.97;;;13.60;99.90;;;;;;5074196;28;20482;-76
2022/04/30 09:29:59;;;;;;;15.90;14.40;;;13.60;99.90;;;;;;5061718;28;20422;-76
2022/04/30 09:32:27;;;;;;;17.93;16.17;;;13.40;99.90;;;;;;5045945;28;20467;-76
2022/04/30 09:37:43;;;;;;;16.70;15.10;;;13.20;99.90;;;;;;5054520;28;20439;-76
2022/04/30 09:40:12;;;;;;;15.60;14.20;;;13.20;99.90;;;;;;5054314;28;20582;-76
2022/04/30 09:42:38;;;;;;;14.67;13.20;;;13.30;99.90;;;;;;5054744;28;20408;-76
2022/04/30 09:45:04;;;;;;;15.87;14.47;;;13.40;99.90;;;;;;5054400;28;20408;-77
2022/04/30 09:47:33;;;;;;;13.93;12.53;;;13.10;99.90;;;;;;5054003;28;20659;-76
2022/04/30 09:55:33;;;;;;;13.03;11.83;;;13.40;99.90;;;;;;5074045;28;20375;-76
2022/04/30 09:58:03;;;;;;;9.87;9.03;;;13.60;99.90;;;;;;5073548;28;20459;-75
2022/04/30 10:00:32;;;;;;;10.40;9.50;;;13.40;99.90;;;;;;5073299;28;20482;-76
2022/04/30 10:03:00;;;;;;;9.40;8.60;;;13.30;99.90;;;;;;5073483;28;20411;-75
2022/04/30 10:05:27;;;;;;;10.37;9.37;;;13.30;99.90;;;;;;5037988;28;20864;-76
2022/04/30 10:07:54;;;;;;;11.50;10.40;;;13.30;99.90;;;;;;5044106;28;20465;-75
2022/04/30 10:10:27;;;;;;;11.03;9.93;;;13.30;99.90;;;;;;5033670;28;20504;-75
2022/04/30 10:13:07;;;;;;;11.43;10.43;;;13.30;99.90;;;;;;5033612;28;20396;-75
2022/04/30 10:15:46;;;;;;;12.93;11.83;;;13.50;99.90;;;;;;5033184;28;20390;-76
2022/04/30 10:18:13;;;;;;;12.00;11.00;;;13.50;99.90;;;;;;5033766;28;21025;-76
2022/04/30 10:20:39;;;;;;;11.73;10.60;;;13.40;99.90;;;;;;5033401;28;20483;-76
2022/04/30 10:23:05;;;;;;;13.03;11.83;;;13.30;99.90;;;;;;5033322;28;20496;-76
2022/04/30 10:25:48;;;;;;;13.93;12.63;;;13.50;99.90;;;;;;5033578;28;20178;-76
2022/04/30 10:28:17;;;;;;;13.27;12.13;;;13.40;99.90;;;;;;5032936;28;20529;-77
2022/04/30 10:30:44;;;;;;;11.70;10.70;;;13.60;99.90;;;;;;5033232;28;20901;-76
2022/04/30 10:33:10;;;;;;;12.27;11.00;;;13.80;99.90;;;;;;5033083;28;20524;-76
2022/04/30 10:35:38;;;;;;;11.97;10.97;;;14.20;99.90;;;;;;5045026;28;20773;-76
2022/04/30 10:38:20;;;;;;;12.87;11.60;;;14.20;99.90;;;;;;5052582;28;20428;-76
2022/04/30 10:40:57;;;;;;;12.50;11.30;;;14.20;99.90;;;;;;5052902;28;20808;-75
2022/04/30 10:43:42;;;;;;;12.47;11.47;;;14.20;99.90;;;;;;5052565;28;20396;-76
2022/04/30 10:46:18;;;;;;;13.90;12.60;;;14.40;99.90;;;;;;5052458;28;20888;-75
2022/04/30 10:48:44;;;;;;;12.17;11.10;;;14.90;99.90;;;;;;5052782;28;20560;-75
2022/04/30 10:51:15;;;;;;;11.70;10.70;;;14.60;99.90;;;;;;5052988;28;20817;-75
2022/04/30 10:53:45;;;;;;;13.20;12.00;;;14.60;99.90;;;;;;5052680;28;20177;-75
2022/04/30 10:56:12;;;;;;;13.40;12.20;;;14.60;99.90;;;;;;5052820;28;20408;-75
2022/04/30 10:58:41;;;;;;;11.57;10.57;;;14.60;99.90;;;;;;5052323;28;20457;-76
2022/04/30 11:01:17;;;;;;;11.23;10.23;;;14.30;99.90;;;;;;5052465;28;20499;-76
2022/04/30 11:03:50;;;;;;;11.67;10.67;;;14.00;99.90;;;;;;5052434;28;20401;-76
2022/04/30 11:06:25;;;;;;;12.60;10.30;;;13.90;99.90;;;;;;5069603;28;20419;-76
2022/04/30 11:09:05;;;;;;;8.50;7.70;;;14.00;99.90;;;;;;5070962;28;20500;-76
2022/04/30 11:11:32;;;;;;;6.70;6.10;;;13.80;99.90;;;;;;5072660;28;20395;-76
2022/04/30 11:14:09;;;;;;;4.90;4.50;;;13.40;99.90;;;;;;5071946;28;20401;-76
2022/04/30 11:16:37;;;;;;;5.70;5.23;;;13.10;99.90;;;;;;5072204;28;20435;-76
2022/04/30 11:19:09;;;;;;;5.87;5.27;;;12.90;99.90;;;;;;5072226;28;20438;-76
2022/04/30 11:21:44;;;;;;;5.47;5.07;;;13.10;99.90;;;;;;5072614;28;20418;-76
2022/04/30 11:24:11;;;;;;;7.17;6.57;;;13.20;99.90;;;;;;5072317;28;20435;-76
2022/04/30 11:26:42;;;;;;;7.07;6.37;;;13.40;99.90;;;;;;5072702;28;20431;-76
2022/04/30 11:29:09;;;;;;;8.00;7.17;;;13.40;99.90;;;;;;5071897;28;20463;-76
2022/04/30 11:31:34;;;;;;;5.77;5.27;;;13.70;99.90;;;;;;5072667;28;20768;-75
2022/04/30 11:34:11;;;;;;;8.33;7.73;;;13.80;99.90;;;;;;5072187;28;20493;-75
2022/04/30 11:36:48;;;;;;;5.70;5.17;;;14.10;99.90;;;;;;5072170;28;20222;-75
2022/04/30 11:39:15;;;;;;;5.10;4.70;;;14.30;99.90;;;;;;5058127;28;20519;-75
2022/04/30 11:41:45;;;;;;;6.80;6.17;;;14.80;99.90;;;;;;5052303;28;20408;-75
2022/04/30 11:44:15;;;;;;;6.67;5.47;;;14.60;99.90;;;;;;5051888;28;20431;-75
2022/04/30 11:46:43;;;;;;;5.10;4.70;;;14.90;99.90;;;;;;5052181;28;20791;-75
2022/04/30 11:49:13;;;;;;;6.30;5.90;;;15.20;99.90;;;;;;5052394;28;20868;-75
2022/04/30 11:51:41;;;;;;;6.03;5.60;;;15.10;99.90;;;;;;5052114;28;20404;-75
2022/04/30 11:54:12;;;;;;;6.40;5.13;;;14.50;99.90;;;;;;5052054;28;20491;-75
2022/04/30 11:56:39;;;;;;;6.67;6.07;;;14.60;99.90;;;;;;5052248;28;20389;-75
2022/04/30 11:59:05;;;;;;;6.47;5.77;;;14.70;99.90;;;;;;5054994;28;20463;-75
2022/04/30 12:01:38;;;;;;;6.60;6.00;;;14.80;99.90;;;;;;5055649;28;20564;-75
2022/04/30 12:04:11;;;;;;;5.73;5.20;;;14.50;99.90;;;;;;5056220;28;20386;-75
2022/04/30 12:06:38;;;;;;;6.00;5.40;;;14.10;99.90;;;;;;5055891;28;20412;-75
2022/04/30 12:09:12;;;;;;;6.50;5.90;;;14.10;99.90;;;;;;5070491;28;20843;-75
2022/04/30 12:11:49;;;;;;;5.37;4.97;;;14.30;99.90;;;;;;5075625;28;20440;-75
2022/04/30 12:14:16;;;;;;;6.53;5.93;;;15.70;99.90;;;;;;5075407;28;20392;-75
2022/04/30 12:16:43;;;;;;;5.77;5.27;;;16.50;99.90;;;;;;5075843;28;20807;-75
2022/04/30 12:25:12;;;;;;;6.73;6.23;;;15.20;99.90;;;;;;5075396;28;20479;-76
2022/04/30 12:27:40;;;;;;;7.33;5.93;;;15.00;99.90;;;;;;5075337;28;20436;-75
2022/04/30 12:30:14;;;;;;;5.70;5.30;;;14.40;99.90;;;;;;5075132;28;20776;-75
2022/04/30 12:33:00;;;;;;;6.30;5.80;;;14.60;99.90;;;;;;5075228;28;20407;-75
2022/04/30 12:35:32;;;;;;;6.50;5.93;;;16.00;99.90;;;;;;5057213;28;20427;-76
2022/04/30 12:38:09;;;;;;;6.00;5.40;;;16.60;99.90;;;;;;5075038;28;20481;-76
2022/04/30 12:40:37;;;;;;;6.40;5.90;;;16.70;99.90;;;;;;5075802;28;20403;-76
2022/04/30 12:43:04;;;;;;;7.23;6.63;;;16.30;99.90;;;;;;5074819;28;20411;-76
2022/04/30 12:45:33;;;;;;;6.20;5.70;;;15.70;99.90;;;;;;5073389;28;20415;-76
2022/04/30 12:48:00;;;;;;;6.43;5.93;;;15.20;99.90;;;;;;5075348;28;21001;-76
2022/04/30 12:50:26;;;;;;;5.87;5.27;;;15.10;99.90;;;;;;5074799;28;20411;-76
2022/04/30 12:52:52;;;;;;;6.23;5.73;;;14.90;99.90;;;;;;5074844;28;20463;-76
2022/04/30 12:55:18;;;;;;;6.93;6.43;;;14.70;99.90;;;;;;5056824;28;20418;-76
2022/04/30 12:57:45;;;;;;;7.10;6.40;;;14.40;99.90;;;;;;5074604;28;20942;-76
2022/04/30 13:00:12;;;;;;;6.03;5.50;;;14.20;99.90;;;;;;5095918;22;20227;-69
2022/04/30 13:02:39;;;;;;;7.20;6.50;;;14.30;99.90;;;;;;5070593;28;20401;-67
2022/04/30 13:05:09;;;;;;;5.57;5.17;;;14.10;99.90;;;;;;5090954;28;20455;-69
2022/04/30 13:07:36;;;;;;;5.63;5.13;;;13.80;99.90;;;;;;5091998;28;20445;-69
2022/04/30 13:15:31;;;;;;;6.83;6.30;;;13.50;99.90;;;;;;5074853;28;20414;-70
2022/04/30 13:17:56;;;;;;;7.80;7.07;;;13.50;99.90;;;;;;5075201;28;20439;-68
2022/04/30 13:20:22;;;;;;;8.70;7.90;;;13.60;99.90;;;;;;5074997;28;20189;-69